Time;durP1;ratioP1;P1;durP2;ratioP2;P2;SDS_P1;SDS_P2;PMS_P1;PMS_P2;Temp;Humidity;BMP_temperature;BMP_pressure;BME280_temperature;BME280_humidity;BME280_pressure;Samples;Min_cycle;Max_cycle;Signal;HPM_P1;HPM_P2
2022/10/10 00:01:16;;;;;;;16.08;7.10;;;;;;;14.82;68.97;100822.91;6277792;22;20343;-69
2022/10/10 00:03:44;;;;;;;12.02;6.47;;;;;;;14.89;68.63;100825.97;6250726;22;20019;-68
2022/10/10 00:06:12;;;;;;;11.05;6.93;;;;;;;14.79;68.31;100827.16;6277246;22;20026;-67
2022/10/10 00:08:39;;;;;;;15.00;6.55;;;;;;;14.86;68.54;100829.38;6277922;22;20455;-68
2022/10/10 00:11:07;;;;;;;14.13;6.75;;;;;;;14.71;68.22;100825.28;6249235;22;20020;-69
2022/10/10 00:13:34;;;;;;;15.65;7.00;;;;;;;14.77;67.92;100823.13;6249938;22;20329;-69
2022/10/10 00:16:02;;;;;;;15.45;6.90;;;;;;;14.64;67.75;100825.81;6248898;22;20024;-68
2022/10/10 00:18:30;;;;;;;12.82;6.57;;;;;;;14.59;68.11;100820.47;6277456;22;20024;-69
2022/10/10 00:20:57;;;;;;;13.93;7.30;;;;;;;14.72;68.54;100824.13;6225546;22;20008;-68
2022/10/10 00:23:24;;;;;;;12.23;6.13;;;;;;;14.79;67.89;100821.63;6278065;22;20018;-69
2022/10/10 00:25:51;;;;;;;11.73;6.40;;;;;;;14.75;67.96;100820.66;6276717;22;20031;-68
2022/10/10 00:28:19;;;;;;;12.30;6.72;;;;;;;14.78;68.03;100819.19;6277322;22;20023;-68
2022/10/10 00:30:46;;;;;;;12.57;6.82;;;;;;;14.85;69.18;100820.28;6250041;22;20332;-68
2022/10/10 00:33:15;;;;;;;11.82;6.63;;;;;;;14.78;68.35;100819.19;6278061;22;20027;-68
2022/10/10 00:35:42;;;;;;;17.13;6.90;;;;;;;14.80;68.18;100814.94;6277501;22;20018;-68
2022/10/10 00:38:09;;;;;;;14.07;6.25;;;;;;;14.71;68.50;100814.19;6276712;22;20479;-69
2022/10/10 00:40:46;;;;;;;11.68;7.45;;;;;;;14.76;68.48;100816.75;6224589;22;20016;-69
2022/10/10 00:43:14;;;;;;;16.90;7.05;;;;;;;14.75;67.97;100814.34;6249721;22;20050;-68
2022/10/10 00:45:43;;;;;;;16.42;7.70;;;;;;;14.77;67.58;100817.59;6224045;22;20030;-67
2022/10/10 00:48:23;;;;;;;17.55;7.70;;;;;;;14.70;67.51;100812.56;6225451;22;20039;-68
2022/10/10 00:50:53;;;;;;;13.45;6.68;;;;;;;14.59;67.89;100809.38;6250173;22;20007;-67
2022/10/10 00:53:24;;;;;;;16.02;7.47;;;;;;;14.52;68.51;100802.78;6224640;22;20020;-69
2022/10/10 00:55:52;;;;;;;15.43;6.78;;;;;;;14.56;68.22;100801.75;6249662;22;20351;-67
2022/10/10 00:58:20;;;;;;;15.98;7.22;;;;;;;14.51;69.56;100807.50;6250588;22;20016;-68
2022/10/10 01:00:48;;;;;;;14.32;6.97;;;;;;;14.67;69.95;100804.94;6277010;22;20012;-68
2022/10/10 01:03:15;;;;;;;14.18;7.50;;;;;;;14.56;68.58;100803.69;6277316;22;20350;-67
2022/10/10 01:05:42;;;;;;;17.05;6.70;;;;;;;14.46;69.11;100806.88;6248205;22;20026;-68
2022/10/10 01:08:10;;;;;;;14.63;6.70;;;;;;;14.43;70.10;100802.03;6249902;22;20023;-68
2022/10/10 01:10:54;;;;;;;14.68;6.90;;;;;;;14.25;69.98;100798.53;6250292;22;20451;-68
2022/10/10 01:13:39;;;;;;;16.27;7.90;;;;;;;14.37;71.25;100806.13;6223340;22;20019;-68
2022/10/10 01:16:12;;;;;;;16.75;7.32;;;;;;;14.30;70.75;100803.06;6249344;22;20023;-68
2022/10/10 01:18:45;;;;;;;11.10;7.60;;;;;;;14.25;70.45;100804.06;6224418;22;20020;-68
2022/10/10 01:21:33;;;;;;;16.55;7.45;;;;;;;14.21;70.05;100805.06;6276266;22;20016;-68
2022/10/10 01:24:28;;;;;;;15.13;7.05;;;;;;;14.16;70.74;100802.47;6199542;22;20487;-68
2022/10/10 01:27:05;;;;;;;12.35;6.97;;;;;;;13.97;70.73;100804.88;6249204;22;20041;-68
2022/10/10 01:29:52;;;;;;;14.93;7.65;;;;;;;14.08;70.78;100797.81;6249278;22;20028;-68
2022/10/10 01:32:38;;;;;;;16.73;7.40;;;;;;;14.07;70.47;100808.06;6250140;22;20019;-68
2022/10/10 01:35:08;;;;;;;18.33;7.75;;;;;;;13.90;70.92;100807.34;6252367;22;20108;-68
2022/10/10 01:37:53;;;;;;;14.48;7.60;;;;;;;13.95;71.32;100805.19;6250555;22;20026;-68
2022/10/10 01:40:47;;;;;;;12.95;6.95;;;;;;;13.89;71.19;100805.72;6252124;22;20045;-67
2022/10/10 01:43:15;;;;;;;15.00;7.40;;;;;;;14.03;71.33;100807.13;6264798;22;20024;-68
2022/10/10 01:45:45;;;;;;;11.10;7.18;;;;;;;14.00;71.17;100801.44;6251206;22;20050;-68
2022/10/10 01:48:13;;;;;;;14.88;7.68;;;;;;;14.02;70.98;100799.94;6279362;22;20019;-67
2022/10/10 01:51:07;;;;;;;17.27;6.93;;;;;;;14.10;70.36;100796.34;6278855;22;20023;-68
2022/10/10 01:53:53;;;;;;;13.00;7.00;;;;;;;13.93;70.77;100793.63;6279458;22;20020;-67
2022/10/10 01:56:26;;;;;;;14.52;6.82;;;;;;;13.81;71.46;100798.28;6250688;22;20028;-67
2022/10/10 01:59:25;;;;;;;14.75;7.35;;;;;;;13.82;71.74;100789.66;6250015;22;20026;-68
2022/10/10 02:01:57;;;;;;;14.68;7.13;;;;;;;13.85;71.50;100786.19;6288871;22;20022;-67
2022/10/10 02:04:32;;;;;;;15.18;7.53;;;;;;;13.82;71.73;100794.38;6251929;22;20467;-68
2022/10/10 02:07:40;;;;;;;12.43;6.90;;;;;;;13.78;71.85;100796.97;6251750;22;20019;-68
2022/10/10 02:10:09;;;;;;;14.43;6.82;;;;;;;13.89;71.38;100789.94;6214839;22;20030;-68
2022/10/10 02:12:39;;;;;;;16.00;7.00;;;;;;;13.89;71.73;100795.47;6211885;22;20030;-68
2022/10/10 02:15:15;;;;;;;17.33;7.77;;;;;;;13.71;72.05;100798.63;6278435;22;20024;-68
2022/10/10 02:17:44;;;;;;;11.68;6.45;;;;;;;13.79;72.00;100797.81;6279223;22;20432;-68
2022/10/10 02:20:12;;;;;;;11.88;6.55;;;;;;;13.77;72.12;100800.09;6225532;22;20016;-68
2022/10/10 02:22:43;;;;;;;13.77;6.28;;;;;;;13.60;72.87;100800.16;6251960;22;20023;-69
2022/10/10 02:25:11;;;;;;;13.18;6.72;;;;;;;13.68;72.62;100793.78;6250973;22;20412;-66
2022/10/10 02:27:48;;;;;;;14.82;6.90;;;;;;;13.66;72.91;100791.34;6226458;22;20043;-67
2022/10/10 02:30:15;;;;;;;10.38;6.43;;;;;;;13.73;72.69;100791.63;6251269;22;20022;-69
2022/10/10 02:32:48;;;;;;;15.20;6.60;;;;;;;13.61;73.02;100791.53;6278990;22;20019;-69
2022/10/10 02:35:23;;;;;;;15.75;7.07;;;;;;;13.61;73.47;100797.06;6279014;22;20016;-68
2022/10/10 02:37:52;;;;;;;19.80;7.22;;;;;;;13.96;72.26;100797.72;6252268;22;20016;-69
2022/10/10 02:40:22;;;;;;;12.85;6.60;;;;;;;14.00;73.17;100793.13;6253261;22;20018;-69
2022/10/10 02:42:50;;;;;;;14.93;6.82;;;;;;;13.87;72.12;100783.91;6251498;22;20030;-68
2022/10/10 02:45:22;;;;;;;13.40;6.45;;;;;;;13.86;73.03;100787.81;6226000;22;20020;-68
2022/10/10 02:47:51;;;;;;;14.93;7.35;;;;;;;13.70;72.72;100799.78;6252269;22;20012;-67
2022/10/10 02:50:19;;;;;;;12.32;7.07;;;;;;;13.78;72.57;100798.94;6225559;22;20026;-68
2022/10/10 02:52:49;;;;;;;14.02;6.70;;;;;;;13.75;72.88;100794.06;6252305;22;20074;-68
2022/10/10 02:55:17;;;;;;;19.50;8.25;;;;;;;13.57;73.29;100791.38;6278873;22;20012;-68
2022/10/10 02:57:44;;;;;;;19.35;7.53;;;;;;;13.59;73.49;100799.34;6226650;22;20493;-68
2022/10/10 03:00:13;;;;;;;10.95;6.30;;;;;;;13.68;73.97;100799.31;6251694;22;20020;-68
2022/10/10 03:02:43;;;;;;;14.18;7.00;;;;;;;13.73;73.30;100788.88;6237443;22;20372;-68
2022/10/10 03:05:10;;;;;;;13.88;6.55;;;;;;;13.52;73.70;100799.03;6278791;22;20020;-68
2022/10/10 03:07:37;;;;;;;13.80;6.85;;;;;;;13.62;75.06;100801.44;6278597;22;20027;-68
2022/10/10 03:10:06;;;;;;;12.50;7.15;;;;;;;13.75;74.98;100799.59;6250335;22;20019;-70
2022/10/10 03:12:34;;;;;;;12.70;6.55;;;;;;;13.75;73.96;100799.59;6251233;22;20043;-68
2022/10/10 03:15:03;;;;;;;13.18;6.70;;;;;;;13.73;73.51;100797.16;6278328;22;20039;-67
2022/10/10 03:17:37;;;;;;;14.40;6.43;;;;;;;13.63;74.34;100799.50;6224821;22;20020;-68
2022/10/10 03:20:05;;;;;;;11.48;6.55;;;;;;;13.73;74.22;100801.88;6226276;22;20026;-68
2022/10/10 03:22:33;;;;;;;11.90;6.30;;;;;;;13.81;74.11;100792.75;6278462;22;20367;-68
2022/10/10 03:25:00;;;;;;;14.05;6.97;;;;;;;13.86;76.95;100798.88;6278748;22;20038;-68
2022/10/10 03:27:27;;;;;;;13.65;6.57;;;;;;;13.54;75.02;100791.22;6249105;22;20019;-68
2022/10/10 03:29:55;;;;;;;13.95;6.47;;;;;;;13.49;76.16;100786.66;6251124;22;20315;-68
2022/10/10 03:32:22;;;;;;;14.68;6.50;;;;;;;13.69;77.71;100789.84;6250289;22;20045;-67
2022/10/10 03:34:49;;;;;;;16.52;8.00;;;;;;;13.64;76.81;100801.09;6278229;22;20027;-68
2022/10/10 03:37:17;;;;;;;14.95;7.47;;;;;;;13.57;75.14;100793.31;6246272;22;20490;-67
2022/10/10 03:39:44;;;;;;;13.23;6.90;;;;;;;13.68;74.64;100799.31;6277929;22;20016;-68
2022/10/10 03:42:11;;;;;;;14.43;7.05;;;;;;;13.71;75.02;100793.09;6277116;22;20089;-68
2022/10/10 03:44:39;;;;;;;11.98;6.60;;;;;;;13.73;75.01;100797.16;6277931;22;20015;-67
2022/10/10 03:47:06;;;;;;;10.55;6.70;;;;;;;13.86;76.95;100798.09;6223673;22;20309;-68
2022/10/10 03:49:33;;;;;;;13.07;7.32;;;;;;;13.89;77.39;100792.72;6250708;22;20019;-67
2022/10/10 03:52:01;;;;;;;14.52;7.28;;;;;;;13.76;75.21;100801.22;6277799;22;20074;-67
2022/10/10 03:54:28;;;;;;;18.35;7.80;;;;;;;13.70;75.94;100797.03;6250265;22;20023;-67
2022/10/10 03:56:56;;;;;;;18.20;7.15;;;;;;;13.74;77.29;100798.78;6250033;22;20022;-67
2022/10/10 03:59:23;;;;;;;16.38;7.10;;;;;;;13.62;76.13;100795.09;6278164;22;20444;-67
2022/10/10 04:01:50;;;;;;;16.77;7.18;;;;;;;13.74;77.76;100796.00;6248121;22;20042;-68
2022/10/10 04:04:18;;;;;;;12.50;7.20;;;;;;;13.50;75.77;100798.56;6249850;22;20016;-67
2022/10/10 04:06:45;;;;;;;12.98;6.95;;;;;;;13.54;76.90;100789.28;6250313;22;20019;-67
2022/10/10 04:09:12;;;;;;;13.82;7.47;;;;;;;13.57;77.51;100798.84;6277037;22;20111;-67
2022/10/10 04:11:40;;;;;;;13.70;6.85;;;;;;;13.37;78.14;100797.63;6277708;22;20011;-67
2022/10/10 04:14:07;;;;;;;14.50;7.20;;;;;;;13.21;77.13;100795.72;6249479;22;20019;-66
2022/10/10 04:16:34;;;;;;;15.02;7.00;;;;;;;13.46;78.56;100789.28;6276479;22;20015;-67
2022/10/10 04:19:01;;;;;;;12.45;6.90;;;;;;;13.39;78.23;100784.28;6278064;22;20016;-68
2022/10/10 04:21:30;;;;;;;18.65;7.60;;;;;;;13.43;77.95;100778.88;6277377;22;20023;-67
2022/10/10 04:23:57;;;;;;;16.25;7.32;;;;;;;13.32;77.14;100783.97;6277945;22;20015;-68
2022/10/10 04:26:25;;;;;;;15.10;7.40;;;;;;;13.31;78.56;100787.88;6277113;22;20020;-68
2022/10/10 04:28:52;;;;;;;16.80;7.60;;;;;;;12.97;78.42;100787.13;6250846;22;20016;-68
2022/10/10 04:31:19;;;;;;;15.45;7.68;;;;;;;13.22;80.71;100789.03;6250103;22;20026;-68
2022/10/10 04:33:47;;;;;;;15.20;7.68;;;;;;;13.32;78.16;100786.72;6278158;22;20015;-69
2022/10/10 04:36:14;;;;;;;18.40;7.95;;;;;;;13.35;77.31;100785.28;6251057;22;20020;-67
2022/10/10 04:38:42;;;;;;;15.18;7.38;;;;;;;13.50;80.20;100784.72;6249345;22;20020;-68
2022/10/10 04:41:09;;;;;;;11.57;6.85;;;;;;;13.39;77.49;100784.28;6223162;22;20459;-68
2022/10/10 04:43:37;;;;;;;14.57;7.03;;;;;;;13.37;77.20;100777.47;6250101;22;20332;-68
2022/10/10 04:46:04;;;;;;;14.40;6.32;;;;;;;13.30;77.55;100779.91;6276819;22;20015;-68
2022/10/10 04:48:32;;;;;;;19.65;7.10;;;;;;;13.35;77.57;100788.81;6251156;22;20050;-67
2022/10/10 04:50:59;;;;;;;13.52;6.40;;;;;;;13.78;80.87;100793.41;6250045;22;20011;-67
2022/10/10 04:53:27;;;;;;;13.65;6.80;;;;;;;13.71;78.62;100790.34;6249670;22;20030;-67
2022/10/10 04:55:54;;;;;;;11.38;6.30;;;;;;;13.57;78.42;100788.63;6277040;22;20024;-67
2022/10/10 04:58:21;;;;;;;20.25;6.60;;;;;;;13.64;77.32;100787.25;6251005;22;20024;-67
2022/10/10 05:00:53;;;;;;;12.13;5.85;;;;;;;13.40;77.06;100763.78;6277062;22;20024;-69
2022/10/10 05:03:21;;;;;;;17.63;5.97;;;;;;;13.38;78.55;100773.53;6276462;22;20026;-67
2022/10/10 05:05:49;;;;;;;11.02;6.65;;;;;;;13.45;79.19;100784.91;6277386;22;20019;-68
2022/10/10 05:08:17;;;;;;;12.23;6.47;;;;;;;13.36;78.62;100771.09;6251565;22;20120;-68
2022/10/10 05:10:45;;;;;;;14.85;6.60;;;;;;;13.37;80.51;100796.81;6251922;22;20020;-68
2022/10/10 05:13:14;;;;;;;18.45;6.63;;;;;;;13.32;78.77;100789.50;6278754;22;20018;-67
2022/10/10 05:16:16;;;;;;;14.82;7.15;;;;;;;13.39;78.94;100792.56;6279993;22;20019;-68
2022/10/10 05:18:49;;;;;;;12.02;6.40;;;;;;;13.39;80.30;100789.81;6279555;22;20019;-67
2022/10/10 05:21:32;;;;;;;13.50;6.57;;;;;;;13.16;79.45;100796.69;6279908;22;20018;-69
2022/10/10 05:24:43;;;;;;;14.35;6.75;;;;;;;13.21;79.27;100795.72;6253440;22;20019;-68
2022/10/10 05:27:16;;;;;;;15.20;6.65;;;;;;;13.20;79.34;100794.91;6156991;22;20020;-68
2022/10/10 05:29:48;;;;;;;17.27;7.10;;;;;;;13.30;80.19;100791.00;6254868;22;20008;-68
2022/10/10 05:32:15;;;;;;;12.10;7.30;;;;;;;13.27;79.13;100786.91;6225806;22;20064;-68
2022/10/10 05:34:43;;;;;;;13.32;7.40;;;;;;;13.43;78.91;100782.47;6279474;22;20020;-68
2022/10/10 05:37:10;;;;;;;14.32;7.57;;;;;;;13.18;78.34;100780.59;6251894;22;20451;-67
2022/10/10 05:39:40;;;;;;;15.38;7.15;;;;;;;13.16;79.24;100788.38;6251838;22;20043;-68
2022/10/10 05:42:12;;;;;;;15.38;7.90;;;;;;;13.23;78.81;100777.63;6227828;22;20420;-67
2022/10/10 05:44:52;;;;;;;15.85;9.23;;;;;;;13.15;79.28;100781.25;6252956;22;20015;-69
2022/10/10 05:47:20;;;;;;;16.00;8.40;;;;;;;13.16;80.44;100774.56;6249877;22;20020;-69
2022/10/10 05:49:57;;;;;;;15.55;8.85;;;;;;;13.36;79.13;100773.88;6229183;22;20066;-69
2022/10/10 05:52:27;;;;;;;15.32;9.10;;;;;;;13.14;79.23;100776.88;6278709;22;20015;-69
2022/10/10 05:54:56;;;;;;;18.77;8.85;;;;;;;13.14;80.85;100770.53;6251959;22;20475;-69
2022/10/10 05:57:27;;;;;;;16.35;7.70;;;;;;;13.22;81.00;100766.91;6278985;22;20019;-68
2022/10/10 06:00:24;;;;;;;15.73;7.25;;;;;;;13.08;80.55;100780.13;6209492;22;20375;-68
2022/10/10 06:02:52;;;;;;;19.52;7.32;;;;;;;13.18;80.81;100779.78;6224227;22;20019;-67
2022/10/10 06:05:24;;;;;;;23.35;10.70;;;;;;;13.42;82.33;100775.28;6279698;22;20016;-67
2022/10/10 06:07:53;;;;;;;15.00;6.47;;;;;;;12.96;81.24;100788.25;6279940;22;20019;-67
2022/10/10 06:10:52;;;;;;;17.08;7.97;;;;;;;13.07;82.73;100789.56;6251273;22;20043;-68
2022/10/10 06:13:27;;;;;;;23.42;10.35;;;;;;;12.67;82.85;100782.59;6253314;22;20526;-70
2022/10/10 06:16:01;;;;;;;15.20;8.30;;;;;;;12.94;83.09;100788.56;6226865;22;20023;-68
2022/10/10 06:18:30;;;;;;;20.17;7.60;;;;;;;13.22;84.05;100792.63;6226500;22;20023;-68
2022/10/10 06:21:02;;;;;;;17.38;9.43;;;;;;;13.29;82.53;100800.41;6225351;22;20016;-67
2022/10/10 06:23:29;;;;;;;19.93;9.90;;;;;;;13.33;82.28;100799.44;6251530;22;20451;-67
2022/10/10 06:26:00;;;;;;;17.63;8.15;;;;;;;13.39;82.08;100806.41;6252863;22;20243;-67
2022/10/10 06:28:29;;;;;;;19.38;7.90;;;;;;;13.32;81.12;100806.09;6249452;22;20023;-67
2022/10/10 06:31:03;;;;;;;21.02;7.18;;;;;;;13.37;81.05;100808.69;6251440;22;20020;-66
2022/10/10 06:33:32;;;;;;;12.77;6.72;;;;;;;13.39;81.21;100803.63;6251821;22;20008;-66
2022/10/10 06:36:05;;;;;;;16.08;6.50;;;;;;;13.69;84.01;100809.22;6203028;22;20020;-65
2022/10/10 06:38:40;;;;;;;12.60;6.47;;;;;;;14.31;85.37;100805.50;6225221;22;20026;-65
2022/10/10 06:41:10;;;;;;;13.00;6.80;;;;;;;14.05;79.88;100809.56;6251740;22;20022;-65
2022/10/10 06:43:37;;;;;;;20.83;12.07;;;;;;;13.88;79.01;100806.88;6278934;22;20019;-64
2022/10/10 06:46:09;;;;;;;16.42;8.25;;;;;;;13.76;78.47;100815.06;6277396;22;20303;-65
2022/10/10 06:48:37;;;;;;;19.58;8.23;;;;;;;13.68;78.19;100813.16;6250986;22;20030;-66
2022/10/10 06:51:13;;;;;;;12.43;7.22;;;;;;;13.63;79.78;100816.09;6277394;22;20400;-64
2022/10/10 06:53:45;;;;;;;24.08;7.45;;;;;;;13.53;79.99;100817.25;6225179;22;20019;-66
2022/10/10 06:56:19;;;;;;;13.93;7.28;;;;;;;13.42;80.22;100821.53;6221174;22;20026;-65
2022/10/10 06:58:57;;;;;;;16.40;7.57;;;;;;;13.72;79.40;100825.97;6252708;22;20023;-65
2022/10/10 07:01:57;;;;;;;15.27;7.05;;;;;;;13.75;80.81;100843.91;6247655;22;20020;-66
2022/10/10 07:04:49;;;;;;;16.88;7.78;;;;;;;13.78;79.87;100848.75;6250262;22;20356;-65
2022/10/10 07:07:22;;;;;;;15.45;7.47;;;;;;;13.73;78.79;100848.94;6202522;22;20027;-66
2022/10/10 07:09:49;;;;;;;20.27;7.93;;;;;;;13.83;79.23;100854.13;6277686;22;20019;-65
2022/10/10 07:12:17;;;;;;;14.30;7.45;;;;;;;13.83;78.52;100867.97;6276852;22;20015;-68
2022/10/10 07:14:44;;;;;;;17.70;7.32;;;;;;;14.02;77.93;100860.88;6276374;22;20011;-64
2022/10/10 07:17:11;;;;;;;13.57;7.72;;;;;;;13.89;78.60;100858.34;6249142;22;20020;-65
2022/10/10 07:19:39;;;;;;;19.90;7.68;;;;;;;13.98;78.22;100861.91;6249243;22;20019;-65
2022/10/10 07:22:06;;;;;;;17.58;7.10;;;;;;;14.10;77.92;100864.78;6222239;22;20022;-64
2022/10/10 07:24:34;;;;;;;17.52;6.65;;;;;;;14.04;77.98;100863.31;6276280;22;20027;-64
2022/10/10 07:27:01;;;;;;;16.33;8.20;;;;;;;14.29;79.07;100859.66;6248593;22;20451;-65
2022/10/10 07:29:34;;;;;;;18.70;7.75;;;;;;;14.46;78.85;100856.75;6275371;22;20019;-64
2022/10/10 07:32:02;;;;;;;16.15;9.32;;;;;;;14.42;78.60;100856.63;6248411;22;20015;-64
2022/10/10 07:34:30;;;;;;;18.17;8.15;;;;;;;14.65;78.34;100857.94;6278308;22;20035;-67
2022/10/10 07:36:57;;;;;;;17.92;6.68;;;;;;;14.77;77.89;100854.41;6250042;22;20019;-65
2022/10/10 07:39:25;;;;;;;18.63;7.30;;;;;;;14.89;77.14;100859.25;6276252;22;20037;-65
2022/10/10 07:41:52;;;;;;;15.82;8.05;;;;;;;14.98;76.76;100862.72;6247304;22;20022;-65
2022/10/10 07:44:19;;;;;;;22.25;7.47;;;;;;;15.00;76.27;100864.03;6250211;22;20372;-65
2022/10/10 07:46:46;;;;;;;23.35;7.80;;;;;;;14.75;77.03;100872.56;6274258;22;20451;-63
2022/10/10 07:49:14;;;;;;;20.73;8.63;;;;;;;15.02;77.55;100881.16;6274130;22;20023;-64
2022/10/10 07:51:41;;;;;;;15.32;7.65;;;;;;;14.75;76.71;100881.66;6248031;22;20039;-64
2022/10/10 07:54:09;;;;;;;26.05;9.50;;;;;;;15.11;77.65;100887.44;6275329;22;20023;-64
2022/10/10 07:56:36;;;;;;;21.77;7.93;;;;;;;15.04;77.33;100883.59;6248691;22;20016;-64
2022/10/10 07:59:03;;;;;;;15.60;7.68;;;;;;;15.11;76.23;100879.13;6276211;22;20022;-64
2022/10/10 08:01:31;;;;;;;17.48;6.65;;;;;;;15.35;76.14;100876.44;6275062;22;20026;-64
2022/10/10 08:03:58;;;;;;;16.85;7.68;;;;;;;15.29;75.15;100875.00;6248391;22;20026;-64
2022/10/10 08:06:25;;;;;;;16.30;7.07;;;;;;;15.49;75.70;100877.00;6276090;22;20046;-64
2022/10/10 08:08:53;;;;;;;25.95;7.25;;;;;;;15.47;74.45;100872.91;6249909;22;20347;-65
2022/10/10 08:11:21;;;;;;;20.85;7.93;;;;;;;15.69;75.17;100876.09;6248180;22;20464;-63
2022/10/10 08:13:49;;;;;;;18.42;9.20;;;;;;;15.79;74.41;100880.41;6250496;22;20031;-65
2022/10/10 08:16:17;;;;;;;19.73;7.63;;;;;;;15.85;74.33;100875.47;6221360;22;20023;-65
2022/10/10 08:18:45;;;;;;;17.05;7.10;;;;;;;15.98;73.83;100879.88;6250706;22;20021;-64
2022/10/10 08:21:14;;;;;;;25.75;7.75;;;;;;;16.03;73.78;100886.00;6246343;22;20115;-64
2022/10/10 08:23:41;;;;;;;26.73;8.38;;;;;;;16.16;73.07;100886.84;6275608;22;20011;-65
2022/10/10 08:26:11;;;;;;;23.08;8.00;;;;;;;16.16;73.42;100884.84;6249567;22;20019;-65
2022/10/10 08:28:39;;;;;;;18.95;7.45;;;;;;;16.26;73.50;100903.88;6222640;22;20019;-65
2022/10/10 08:31:12;;;;;;;24.20;8.27;;;;;;;16.36;72.96;100910.91;6275986;22;20018;-65
2022/10/10 08:33:41;;;;;;;19.23;7.03;;;;;;;16.43;72.43;100909.19;6250329;22;20031;-65
2022/10/10 08:36:16;;;;;;;21.67;7.35;;;;;;;16.47;72.56;100914.91;6248179;22;20015;-66
2022/10/10 08:38:44;;;;;;;19.45;7.97;;;;;;;16.50;72.41;100916.97;6225326;22;20020;-66
2022/10/10 08:41:39;;;;;;;19.98;7.45;;;;;;;16.52;72.34;100911.88;6222579;22;20025;-64
2022/10/10 08:44:19;;;;;;;19.70;8.65;;;;;;;16.75;71.67;100915.81;6249149;22;20012;-65
2022/10/10 08:47:02;;;;;;;15.13;7.47;;;;;;;16.72;72.20;100920.09;6275173;22;20020;-67
2022/10/10 08:49:52;;;;;;;30.77;14.45;;;;;;;16.86;72.14;100911.38;6276927;22;20253;-66
2022/10/10 08:52:28;;;;;;;12.80;5.88;;;;;;;16.94;71.64;100929.91;6232461;22;20026;-65
2022/10/10 08:54:57;;;;;;;16.70;6.15;;;;;;;16.87;72.52;100940.84;6248643;22;20019;-66
2022/10/10 08:57:28;;;;;;;15.95;6.07;;;;;;;16.95;71.99;100937.09;6249184;22;20024;-66
2022/10/10 08:59:59;;;;;;;18.35;6.32;;;;;;;16.94;72.26;100935.50;6275494;22;20486;-65
2022/10/10 09:02:37;;;;;;;20.20;6.32;;;;;;;16.92;72.68;100937.81;6247461;22;20016;-65
2022/10/10 09:05:29;;;;;;;18.25;6.35;;;;;;;17.04;72.46;100928.59;6253163;22;20027;-65
2022/10/10 09:08:02;;;;;;;22.85;5.88;;;;;;;17.19;72.21;100930.69;6276930;22;20340;-65
2022/10/10 09:11:06;;;;;;;15.02;5.65;;;;;;;17.16;71.93;100928.56;6276675;22;20026;-65
2022/10/10 09:13:40;;;;;;;16.67;6.18;;;;;;;17.06;72.58;100940.22;6222295;22;20011;-64
2022/10/10 09:16:21;;;;;;;29.85;6.35;;;;;;;17.03;72.97;100947.31;6249175;22;20019;-65
2022/10/10 09:18:58;;;;;;;17.38;5.65;;;;;;;17.11;72.81;100942.75;6250319;22;20045;-65
2022/10/10 09:21:29;;;;;;;23.52;5.82;;;;;;;17.30;72.11;100948.50;6250381;22;20045;-64
2022/10/10 09:24:19;;;;;;;15.25;5.53;;;;;;;17.04;73.30;100951.69;6277010;22;20115;-64
2022/10/10 09:26:51;;;;;;;18.50;8.33;;;;;;;17.11;73.08;100951.91;6249517;22;20034;-64
2022/10/10 09:29:41;;;;;;;17.73;6.63;;;;;;;17.17;72.95;100939.38;6247289;22;20030;-64
2022/10/10 09:32:22;;;;;;;14.75;6.30;;;;;;;17.12;73.20;100952.72;6248392;22;20016;-64
2022/10/10 09:34:54;;;;;;;26.55;11.15;;;;;;;17.12;73.11;100950.75;6224332;22;20015;-64
2022/10/10 09:37:37;;;;;;;20.88;10.95;;;;;;;17.42;72.33;100967.94;6223506;22;20043;-64
2022/10/10 09:40:38;;;;;;;22.10;6.50;;;;;;;17.35;72.48;100985.25;6275056;22;20030;-64
2022/10/10 09:43:29;;;;;;;17.60;7.88;;;;;;;17.41;72.60;100985.81;6249794;22;20023;-62
2022/10/10 09:45:57;;;;;;;18.45;8.80;;;;;;;17.60;71.81;100978.47;6275990;22;20039;-63
2022/10/10 09:48:39;;;;;;;19.23;6.75;;;;;;;17.59;71.72;100990.00;6277199;22;20016;-62
2022/10/10 09:51:13;;;;;;;18.70;6.28;;;;;;;17.48;71.77;100995.25;6277242;22;20404;-63
2022/10/10 09:53:42;;;;;;;17.58;6.03;;;;;;;17.70;71.76;101002.22;6249557;22;20007;-64
2022/10/10 09:56:20;;;;;;;18.83;6.22;;;;;;;17.55;72.07;100997.41;6275712;22;20092;-64
2022/10/10 09:58:50;;;;;;;21.70;5.63;;;;;;;17.47;72.47;101004.75;6277381;22;20015;-64
2022/10/10 10:01:20;;;;;;;17.35;5.55;;;;;;;17.58;72.10;101003.09;6277085;22;20020;-63
2022/10/10 10:04:17;;;;;;;14.70;6.03;;;;;;;17.65;71.99;101000.53;6277269;22;20019;-64
2022/10/10 10:07:18;;;;;;;18.10;6.10;;;;;;;17.64;71.83;101010.03;6226419;22;20020;-63
2022/10/10 10:09:50;;;;;;;16.27;7.03;;;;;;;17.27;72.90;101004.88;6250863;22;20141;-64
2022/10/10 10:12:21;;;;;;;17.33;5.78;;;;;;;17.19;73.69;101014.19;6251058;22;20027;-64
2022/10/10 10:14:50;;;;;;;14.70;5.30;;;;;;;17.43;74.15;100989.91;6248204;22;20012;-64
2022/10/10 10:17:22;;;;;;;18.02;6.00;;;;;;;17.59;73.70;101001.13;6248834;22;20030;-64
2022/10/10 10:19:50;;;;;;;13.75;6.00;;;;;;;17.71;72.79;101003.88;6276928;22;20020;-64
2022/10/10 10:22:37;;;;;;;15.65;5.55;;;;;;;17.82;72.17;101011.34;6279296;22;20022;-67
2022/10/10 10:25:31;;;;;;;14.63;6.20;;;;;;;17.75;71.82;101010.34;6224537;22;20019;-64
2022/10/10 10:28:17;;;;;;;20.23;8.18;;;;;;;17.62;71.99;101017.94;6249322;22;20024;-64
2022/10/10 10:30:45;;;;;;;16.92;5.82;;;;;;;17.72;72.80;101014.66;6200336;22;20027;-63
2022/10/10 10:33:57;;;;;;;17.15;6.78;;;;;;;17.78;74.58;101016.00;6251658;22;20467;-63
2022/10/10 10:36:37;;;;;;;18.30;7.28;;;;;;;17.84;74.53;101036.91;6126877;23;20652;-64
2022/10/10 10:39:32;;;;;;;16.85;7.35;;;;;;;18.11;75.13;101023.31;6152864;23;20018;-63
2022/10/10 10:42:04;;;;;;;29.58;10.48;;;;;;;18.01;73.64;101029.41;6202002;22;20022;-66
2022/10/10 10:44:45;;;;;;;21.30;11.15;;;;;;;18.26;75.19;101030.88;6277786;22;20018;-64
2022/10/10 10:47:28;;;;;;;25.67;13.27;;;;;;;18.38;73.16;101036.38;6276369;22;20015;-64
2022/10/10 10:50:14;;;;;;;27.15;13.90;;;;;;;18.42;72.72;101035.34;6249602;22;20363;-63
2022/10/10 10:52:45;;;;;;;28.45;10.40;;;;;;;18.53;71.22;101042.00;6248589;22;20118;-64
2022/10/10 10:55:36;;;;;;;21.45;7.28;;;;;;;18.41;70.17;101052.47;6249082;22;20012;-62
2022/10/10 10:58:13;;;;;;;27.80;8.57;;;;;;;18.37;71.52;101054.31;6262141;22;20016;-64
2022/10/10 11:01:07;;;;;;;17.98;6.80;;;;;;;18.66;72.32;101051.94;6274892;22;20019;-64
2022/10/10 11:04:00;;;;;;;18.52;8.95;;;;;;;18.60;72.33;101052.56;6254888;22;20023;-64
2022/10/10 11:06:54;;;;;;;24.75;9.95;;;;;;;18.76;71.53;101058.94;6249228;22;20442;-64
2022/10/10 11:09:47;;;;;;;24.67;8.15;;;;;;;18.58;70.26;101054.91;6255798;22;20023;-63
2022/10/10 11:12:30;;;;;;;20.65;7.60;;;;;;;18.68;70.97;101068.31;6278146;22;20026;-63
2022/10/10 11:14:57;;;;;;;13.00;6.47;;;;;;;18.79;71.28;101061.81;6276994;22;20325;-63
2022/10/10 11:17:39;;;;;;;19.70;7.03;;;;;;;18.79;70.41;101066.63;6277100;22;20023;-63
2022/10/10 11:20:22;;;;;;;25.13;8.07;;;;;;;19.03;71.32;101072.81;6277165;22;20079;-65
2022/10/10 11:23:19;;;;;;;17.95;6.47;;;;;;;19.18;69.55;101071.16;6277049;22;20020;-64
2022/10/10 11:26:00;;;;;;;16.92;6.30;;;;;;;19.18;69.47;101071.16;6214343;22;20016;-64
2022/10/10 11:28:40;;;;;;;22.33;7.07;;;;;;;18.81;70.00;101075.44;6251021;22;20020;-63
2022/10/10 11:31:18;;;;;;;19.05;7.15;;;;;;;18.52;71.17;101082.25;6275571;22;20031;-63
2022/10/10 11:33:48;;;;;;;17.27;7.90;;;;;;;18.42;72.20;101080.00;6250133;22;20371;-64
2022/10/10 11:36:18;;;;;;;24.20;8.77;;;;;;;18.61;71.83;101082.06;6225363;22;20023;-64
2022/10/10 11:38:51;;;;;;;15.60;7.10;;;;;;;18.60;71.54;101081.25;6248667;22;20024;-64
2022/10/10 11:42:03;;;;;;;21.33;8.07;;;;;;;18.80;70.73;101080.22;6224279;22;20020;-63
2022/10/10 11:44:35;;;;;;;25.05;8.32;;;;;;;18.44;71.92;101083.25;6273089;22;20020;-63
2022/10/10 11:47:12;;;;;;;18.52;7.60;;;;;;;18.35;72.90;101084.53;6249275;22;20028;-64